sensor_id;sensor_type;location;lat;lon;timestamp;P1;durP1;ratioP1;P2;durP2;ratioP2
75054;SDS011;63636;44.746;10.488;2023-03-29T00:00:54;1.38;;;1.05;;
75054;SDS011;63636;44.746;10.488;2023-03-29T00:03:24;2.25;;;1.20;;
75054;SDS011;63636;44.746;10.488;2023-03-29T00:05:50;2.72;;;1.38;;
75054;SDS011;63636;44.746;10.488;2023-03-29T00:08:24;3.67;;;1.23;;
75054;SDS011;63636;44.746;10.488;2023-03-29T00:10:50;1.58;;;1.15;;
75054;SDS011;63636;44.746;10.488;2023-03-29T00:13:16;1.98;;;1.17;;
75054;SDS011;63636;44.746;10.488;2023-03-29T00:15:42;2.78;;;1.33;;
75054;SDS011;63636;44.746;10.488;2023-03-29T00:18:08;3.17;;;1.23;;
75054;SDS011;63636;44.746;10.488;2023-03-29T00:20:33;4.38;;;1.30;;
75054;SDS011;63636;44.746;10.488;2023-03-29T00:22:59;3.25;;;1.27;;
75054;SDS011;63636;44.746;10.488;2023-03-29T00:25:24;2.22;;;1.20;;
75054;SDS011;63636;44.746;10.488;2023-03-29T00:27:50;2.55;;;1.63;;
75054;SDS011;63636;44.746;10.488;2023-03-29T00:30:15;2.90;;;1.50;;
75054;SDS011;63636;44.746;10.488;2023-03-29T00:32:42;3.25;;;1.38;;
75054;SDS011;63636;44.746;10.488;2023-03-29T00:35:08;3.33;;;1.42;;
75054;SDS011;63636;44.746;10.488;2023-03-29T00:37:34;2.58;;;1.30;;
75054;SDS011;63636;44.746;10.488;2023-03-29T00:40:00;3.70;;;1.38;;
75054;SDS011;63636;44.746;10.488;2023-03-29T00:42:25;3.05;;;1.20;;
75054;SDS011;63636;44.746;10.488;2023-03-29T00:47:41;2.60;;;1.20;;
75054;SDS011;63636;44.746;10.488;2023-03-29T00:50:12;2.95;;;1.40;;
75054;SDS011;63636;44.746;10.488;2023-03-29T00:52:41;2.60;;;1.15;;
75054;SDS011;63636;44.746;10.488;2023-03-29T00:55:10;2.47;;;1.10;;
75054;SDS011;63636;44.746;10.488;2023-03-29T00:57:36;2.47;;;1.20;;
75054;SDS011;63636;44.746;10.488;2023-03-29T01:00:03;2.83;;;1.20;;
75054;SDS011;63636;44.746;10.488;2023-03-29T01:02:29;2.58;;;1.17;;
75054;SDS011;63636;44.746;10.488;2023-03-29T01:05:00;3.30;;;1.40;;
75054;SDS011;63636;44.746;10.488;2023-03-29T01:07:36;2.57;;;1.20;;
75054;SDS011;63636;44.746;10.488;2023-03-29T01:10:05;2.95;;;1.30;;
75054;SDS011;63636;44.746;10.488;2023-03-29T01:12:34;2.33;;;1.10;;
75054;SDS011;63636;44.746;10.488;2023-03-29T01:15:09;3.00;;;1.35;;
75054;SDS011;63636;44.746;10.488;2023-03-29T01:17:36;2.08;;;1.13;;
75054;SDS011;63636;44.746;10.488;2023-03-29T01:20:10;2.70;;;1.33;;
75054;SDS011;63636;44.746;10.488;2023-03-29T01:22:51;3.17;;;1.35;;
75054;SDS011;63636;44.746;10.488;2023-03-29T01:25:29;2.33;;;1.38;;
75054;SDS011;63636;44.746;10.488;2023-03-29T01:28:01;4.47;;;1.35;;
75054;SDS011;63636;44.746;10.488;2023-03-29T01:30:32;2.55;;;1.30;;
75054;SDS011;63636;44.746;10.488;2023-03-29T01:33:05;1.92;;;1.05;;
75054;SDS011;63636;44.746;10.488;2023-03-29T01:38:02;2.55;;;1.30;;
75054;SDS011;63636;44.746;10.488;2023-03-29T01:40:32;2.90;;;1.30;;
75054;SDS011;63636;44.746;10.488;2023-03-29T01:43:07;2.47;;;1.20;;
75054;SDS011;63636;44.746;10.488;2023-03-29T01:45:46;2.88;;;1.20;;
75054;SDS011;63636;44.746;10.488;2023-03-29T01:48:27;1.80;;;1.13;;
75054;SDS011;63636;44.746;10.488;2023-03-29T01:50:59;2.22;;;1.20;;
75054;SDS011;63636;44.746;10.488;2023-03-29T01:53:34;1.90;;;1.30;;
75054;SDS011;63636;44.746;10.488;2023-03-29T01:56:06;2.78;;;1.27;;
75054;SDS011;63636;44.746;10.488;2023-03-29T01:58:34;3.58;;;1.30;;
75054;SDS011;63636;44.746;10.488;2023-03-29T02:01:01;4.15;;;1.25;;
75054;SDS011;63636;44.746;10.488;2023-03-29T02:03:30;2.63;;;1.38;;
75054;SDS011;63636;44.746;10.488;2023-03-29T02:05:56;3.22;;;1.30;;
75054;SDS011;63636;44.746;10.488;2023-03-29T02:08:26;2.72;;;1.38;;
75054;SDS011;63636;44.746;10.488;2023-03-29T02:10:55;4.00;;;1.30;;
75054;SDS011;63636;44.746;10.488;2023-03-29T02:13:21;3.55;;;1.20;;
75054;SDS011;63636;44.746;10.488;2023-03-29T02:15:47;3.83;;;1.48;;
75054;SDS011;63636;44.746;10.488;2023-03-29T02:18:16;3.40;;;1.38;;
75054;SDS011;63636;44.746;10.488;2023-03-29T02:20:44;2.67;;;1.40;;
75054;SDS011;63636;44.746;10.488;2023-03-29T02:25:46;2.85;;;1.30;;
75054;SDS011;63636;44.746;10.488;2023-03-29T02:28:12;2.67;;;1.20;;
75054;SDS011;63636;44.746;10.488;2023-03-29T02:33:46;5.43;;;1.42;;
75054;SDS011;63636;44.746;10.488;2023-03-29T02:36:17;2.65;;;1.33;;
75054;SDS011;63636;44.746;10.488;2023-03-29T02:38:44;2.20;;;1.20;;
75054;SDS011;63636;44.746;10.488;2023-03-29T02:41:10;2.60;;;1.25;;
75054;SDS011;63636;44.746;10.488;2023-03-29T02:43:37;3.53;;;1.30;;
75054;SDS011;63636;44.746;10.488;2023-03-29T02:46:05;3.17;;;1.27;;
75054;SDS011;63636;44.746;10.488;2023-03-29T02:48:32;2.47;;;1.40;;
75054;SDS011;63636;44.746;10.488;2023-03-29T02:51:00;3.20;;;1.50;;
75054;SDS011;63636;44.746;10.488;2023-03-29T02:53:35;2.88;;;1.55;;
75054;SDS011;63636;44.746;10.488;2023-03-29T02:56:03;3.40;;;1.20;;
75054;SDS011;63636;44.746;10.488;2023-03-29T02:58:29;2.75;;;1.27;;
75054;SDS011;63636;44.746;10.488;2023-03-29T03:00:56;2.22;;;1.10;;
75054;SDS011;63636;44.746;10.488;2023-03-29T03:03:22;2.78;;;1.20;;
75054;SDS011;63636;44.746;10.488;2023-03-29T03:05:49;3.33;;;1.10;;
75054;SDS011;63636;44.746;10.488;2023-03-29T03:08:15;6.22;;;1.50;;
75054;SDS011;63636;44.746;10.488;2023-03-29T03:10:41;2.83;;;1.30;;
75054;SDS011;63636;44.746;10.488;2023-03-29T03:13:06;2.47;;;1.33;;
75054;SDS011;63636;44.746;10.488;2023-03-29T03:15:32;2.63;;;1.30;;
75054;SDS011;63636;44.746;10.488;2023-03-29T03:18:00;4.63;;;1.40;;
75054;SDS011;63636;44.746;10.488;2023-03-29T03:20:27;3.60;;;1.30;;
75054;SDS011;63636;44.746;10.488;2023-03-29T03:22:54;2.75;;;1.20;;
75054;SDS011;63636;44.746;10.488;2023-03-29T03:25:22;3.17;;;1.20;;
75054;SDS011;63636;44.746;10.488;2023-03-29T03:27:49;2.78;;;1.25;;
75054;SDS011;63636;44.746;10.488;2023-03-29T03:30:16;3.13;;;1.33;;
75054;SDS011;63636;44.746;10.488;2023-03-29T03:32:47;3.08;;;1.23;;
75054;SDS011;63636;44.746;10.488;2023-03-29T03:35:20;5.67;;;1.20;;
75054;SDS011;63636;44.746;10.488;2023-03-29T03:37:45;2.17;;;1.00;;
75054;SDS011;63636;44.746;10.488;2023-03-29T03:40:13;2.30;;;1.20;;
75054;SDS011;63636;44.746;10.488;2023-03-29T03:42:39;4.00;;;1.60;;
75054;SDS011;63636;44.746;10.488;2023-03-29T03:45:08;2.47;;;1.30;;
75054;SDS011;63636;44.746;10.488;2023-03-29T03:47:37;3.00;;;1.40;;
75054;SDS011;63636;44.746;10.488;2023-03-29T03:50:17;3.03;;;1.40;;
75054;SDS011;63636;44.746;10.488;2023-03-29T03:52:43;4.28;;;1.50;;
75054;SDS011;63636;44.746;10.488;2023-03-29T03:55:09;5.50;;;1.80;;
75054;SDS011;63636;44.746;10.488;2023-03-29T03:57:49;2.65;;;1.45;;
75054;SDS011;63636;44.746;10.488;2023-03-29T04:00:18;4.20;;;1.55;;
75054;SDS011;63636;44.746;10.488;2023-03-29T04:02:48;3.22;;;1.40;;
75054;SDS011;63636;44.746;10.488;2023-03-29T04:05:14;2.58;;;1.40;;
75054;SDS011;63636;44.746;10.488;2023-03-29T04:07:41;5.10;;;1.50;;
75054;SDS011;63636;44.746;10.488;2023-03-29T04:10:27;4.45;;;1.40;;
75054;SDS011;63636;44.746;10.488;2023-03-29T04:13:15;3.95;;;1.38;;
75054;SDS011;63636;44.746;10.488;2023-03-29T04:16:07;5.72;;;1.58;;
75054;SDS011;63636;44.746;10.488;2023-03-29T04:18:33;5.25;;;1.60;;
75054;SDS011;63636;44.746;10.488;2023-03-29T04:20:59;2.60;;;1.33;;
75054;SDS011;63636;44.746;10.488;2023-03-29T04:23:26;2.53;;;1.30;;
75054;SDS011;63636;44.746;10.488;2023-03-29T04:25:53;2.95;;;1.40;;
75054;SDS011;63636;44.746;10.488;2023-03-29T04:28:38;2.53;;;1.10;;
75054;SDS011;63636;44.746;10.488;2023-03-29T04:31:39;4.25;;;1.20;;
75054;SDS011;63636;44.746;10.488;2023-03-29T04:34:27;2.67;;;1.30;;
75054;SDS011;63636;44.746;10.488;2023-03-29T04:36:54;2.13;;;1.20;;
75054;SDS011;63636;44.746;10.488;2023-03-29T04:39:23;3.13;;;1.17;;
75054;SDS011;63636;44.746;10.488;2023-03-29T04:41:56;4.50;;;1.20;;
75054;SDS011;63636;44.746;10.488;2023-03-29T04:44:25;4.00;;;1.20;;
75054;SDS011;63636;44.746;10.488;2023-03-29T04:46:51;2.60;;;1.38;;
75054;SDS011;63636;44.746;10.488;2023-03-29T04:49:32;3.88;;;1.30;;
75054;SDS011;63636;44.746;10.488;2023-03-29T04:51:58;3.15;;;1.10;;
75054;SDS011;63636;44.746;10.488;2023-03-29T04:54:27;2.15;;;1.20;;
75054;SDS011;63636;44.746;10.488;2023-03-29T04:57:10;3.38;;;1.15;;
75054;SDS011;63636;44.746;10.488;2023-03-29T04:59:46;2.75;;;1.25;;
75054;SDS011;63636;44.746;10.488;2023-03-29T05:02:31;2.40;;;1.10;;
75054;SDS011;63636;44.746;10.488;2023-03-29T05:04:57;3.95;;;1.27;;
75054;SDS011;63636;44.746;10.488;2023-03-29T05:07:23;3.33;;;1.15;;
75054;SDS011;63636;44.746;10.488;2023-03-29T05:09:49;2.70;;;1.20;;
75054;SDS011;63636;44.746;10.488;2023-03-29T05:12:15;3.10;;;1.20;;
75054;SDS011;63636;44.746;10.488;2023-03-29T05:14:51;2.78;;;1.20;;
75054;SDS011;63636;44.746;10.488;2023-03-29T05:17:17;3.25;;;1.02;;
75054;SDS011;63636;44.746;10.488;2023-03-29T05:19:44;2.72;;;1.20;;
75054;SDS011;63636;44.746;10.488;2023-03-29T05:22:10;4.72;;;1.40;;
75054;SDS011;63636;44.746;10.488;2023-03-29T05:24:36;4.57;;;1.30;;
75054;SDS011;63636;44.746;10.488;2023-03-29T05:27:09;3.92;;;1.20;;
75054;SDS011;63636;44.746;10.488;2023-03-29T05:29:36;4.55;;;1.40;;
75054;SDS011;63636;44.746;10.488;2023-03-29T05:32:25;2.53;;;1.23;;
75054;SDS011;63636;44.746;10.488;2023-03-29T05:34:51;3.30;;;1.30;;
75054;SDS011;63636;44.746;10.488;2023-03-29T05:37:17;3.47;;;1.20;;
75054;SDS011;63636;44.746;10.488;2023-03-29T05:39:53;4.63;;;1.30;;
75054;SDS011;63636;44.746;10.488;2023-03-29T05:42:25;4.03;;;1.60;;
75054;SDS011;63636;44.746;10.488;2023-03-29T05:44:55;6.63;;;1.60;;
75054;SDS011;63636;44.746;10.488;2023-03-29T05:47:21;2.78;;;1.45;;
75054;SDS011;63636;44.746;10.488;2023-03-29T05:49:48;4.05;;;1.75;;
75054;SDS011;63636;44.746;10.488;2023-03-29T05:52:19;4.35;;;1.90;;
75054;SDS011;63636;44.746;10.488;2023-03-29T05:54:45;6.45;;;2.15;;
75054;SDS011;63636;44.746;10.488;2023-03-29T05:57:11;4.82;;;2.13;;
75054;SDS011;63636;44.746;10.488;2023-03-29T05:59:38;5.15;;;2.10;;
75054;SDS011;63636;44.746;10.488;2023-03-29T06:02:04;4.95;;;2.15;;
75054;SDS011;63636;44.746;10.488;2023-03-29T06:04:30;11.48;;;1.98;;
75054;SDS011;63636;44.746;10.488;2023-03-29T06:07:22;4.72;;;1.80;;
75054;SDS011;63636;44.746;10.488;2023-03-29T06:10:09;5.65;;;1.67;;
75054;SDS011;63636;44.746;10.488;2023-03-29T06:12:36;5.85;;;1.80;;
75054;SDS011;63636;44.746;10.488;2023-03-29T06:15:04;7.97;;;1.75;;
75054;SDS011;63636;44.746;10.488;2023-03-29T06:17:43;5.85;;;1.92;;
75054;SDS011;63636;44.746;10.488;2023-03-29T06:20:12;5.38;;;1.85;;
75054;SDS011;63636;44.746;10.488;2023-03-29T06:22:41;5.05;;;1.60;;
75054;SDS011;63636;44.746;10.488;2023-03-29T06:25:07;4.70;;;1.60;;
75054;SDS011;63636;44.746;10.488;2023-03-29T06:27:36;6.78;;;1.92;;
75054;SDS011;63636;44.746;10.488;2023-03-29T06:30:02;5.38;;;1.83;;
75054;SDS011;63636;44.746;10.488;2023-03-29T06:32:29;6.00;;;2.00;;
75054;SDS011;63636;44.746;10.488;2023-03-29T06:35:02;5.82;;;1.90;;
75054;SDS011;63636;44.746;10.488;2023-03-29T06:37:36;5.30;;;1.80;;
75054;SDS011;63636;44.746;10.488;2023-03-29T06:40:11;6.47;;;2.20;;
75054;SDS011;63636;44.746;10.488;2023-03-29T06:42:41;7.38;;;2.15;;
75054;SDS011;63636;44.746;10.488;2023-03-29T06:45:41;7.30;;;2.20;;
75054;SDS011;63636;44.746;10.488;2023-03-29T06:48:17;9.23;;;2.50;;
75054;SDS011;63636;44.746;10.488;2023-03-29T06:50:43;7.65;;;2.35;;
75054;SDS011;63636;44.746;10.488;2023-03-29T06:53:12;8.55;;;2.75;;
75054;SDS011;63636;44.746;10.488;2023-03-29T06:55:39;10.30;;;2.50;;
75054;SDS011;63636;44.746;10.488;2023-03-29T06:58:24;11.68;;;2.67;;
75054;SDS011;63636;44.746;10.488;2023-03-29T07:00:50;11.57;;;2.53;;
75054;SDS011;63636;44.746;10.488;2023-03-29T07:03:24;8.90;;;2.38;;
75054;SDS011;63636;44.746;10.488;2023-03-29T07:05:53;7.57;;;2.42;;
75054;SDS011;63636;44.746;10.488;2023-03-29T07:08:25;10.05;;;2.10;;
75054;SDS011;63636;44.746;10.488;2023-03-29T07:10:57;7.25;;;2.15;;
75054;SDS011;63636;44.746;10.488;2023-03-29T07:13:56;7.10;;;2.13;;
75054;SDS011;63636;44.746;10.488;2023-03-29T07:16:22;6.88;;;1.80;;
75054;SDS011;63636;44.746;10.488;2023-03-29T07:18:47;7.82;;;1.70;;
75054;SDS011;63636;44.746;10.488;2023-03-29T07:21:25;6.32;;;1.58;;
75054;SDS011;63636;44.746;10.488;2023-03-29T07:23:51;2.72;;;1.20;;
75054;SDS011;63636;44.746;10.488;2023-03-29T07:26:16;6.40;;;1.55;;
75054;SDS011;63636;44.746;10.488;2023-03-29T07:28:48;6.32;;;1.60;;
75054;SDS011;63636;44.746;10.488;2023-03-29T07:31:14;4.65;;;1.30;;
75054;SDS011;63636;44.746;10.488;2023-03-29T07:33:46;3.65;;;1.30;;
75054;SDS011;63636;44.746;10.488;2023-03-29T07:36:17;5.28;;;1.60;;
75054;SDS011;63636;44.746;10.488;2023-03-29T07:38:42;2.85;;;1.52;;
75054;SDS011;63636;44.746;10.488;2023-03-29T07:41:13;4.90;;;1.48;;
75054;SDS011;63636;44.746;10.488;2023-03-29T07:43:46;4.03;;;1.38;;
75054;SDS011;63636;44.746;10.488;2023-03-29T07:46:16;4.20;;;1.30;;
75054;SDS011;63636;44.746;10.488;2023-03-29T07:48:42;3.90;;;1.55;;
75054;SDS011;63636;44.746;10.488;2023-03-29T07:51:11;3.65;;;1.50;;
75054;SDS011;63636;44.746;10.488;2023-03-29T07:53:57;4.32;;;1.50;;
75054;SDS011;63636;44.746;10.488;2023-03-29T07:56:49;3.05;;;1.60;;
75054;SDS011;63636;44.746;10.488;2023-03-29T07:59:15;5.65;;;1.70;;
75054;SDS011;63636;44.746;10.488;2023-03-29T08:01:43;3.28;;;1.88;;
75054;SDS011;63636;44.746;10.488;2023-03-29T08:04:27;3.78;;;1.73;;
75054;SDS011;63636;44.746;10.488;2023-03-29T08:07:28;3.95;;;1.80;;
75054;SDS011;63636;44.746;10.488;2023-03-29T08:10:19;4.03;;;2.00;;
75054;SDS011;63636;44.746;10.488;2023-03-29T08:13:04;3.75;;;1.80;;
75054;SDS011;63636;44.746;10.488;2023-03-29T08:15:49;5.30;;;2.00;;
75054;SDS011;63636;44.746;10.488;2023-03-29T08:18:29;4.35;;;1.90;;
75054;SDS011;63636;44.746;10.488;2023-03-29T08:20:55;5.70;;;1.67;;
75054;SDS011;63636;44.746;10.488;2023-03-29T08:23:21;3.38;;;1.65;;
75054;SDS011;63636;44.746;10.488;2023-03-29T08:26:09;2.92;;;1.70;;
75054;SDS011;63636;44.746;10.488;2023-03-29T08:28:36;3.55;;;1.85;;
75054;SDS011;63636;44.746;10.488;2023-03-29T08:31:03;6.05;;;1.77;;
75054;SDS011;63636;44.746;10.488;2023-03-29T08:33:29;5.38;;;1.90;;
75054;SDS011;63636;44.746;10.488;2023-03-29T08:36:13;4.47;;;1.83;;
75054;SDS011;63636;44.746;10.488;2023-03-29T08:38:38;3.25;;;1.80;;
75054;SDS011;63636;44.746;10.488;2023-03-29T08:41:11;4.90;;;1.70;;
75054;SDS011;63636;44.746;10.488;2023-03-29T08:46:27;5.88;;;1.98;;
75054;SDS011;63636;44.746;10.488;2023-03-29T08:48:59;4.47;;;1.70;;
75054;SDS011;63636;44.746;10.488;2023-03-29T08:51:32;3.28;;;1.60;;
75054;SDS011;63636;44.746;10.488;2023-03-29T08:56:57;4.55;;;1.63;;
75054;SDS011;63636;44.746;10.488;2023-03-29T08:59:28;3.47;;;1.70;;
75054;SDS011;63636;44.746;10.488;2023-03-29T09:01:56;4.50;;;1.75;;
75054;SDS011;63636;44.746;10.488;2023-03-29T09:04:27;4.70;;;1.80;;
75054;SDS011;63636;44.746;10.488;2023-03-29T09:07:07;4.47;;;1.92;;
75054;SDS011;63636;44.746;10.488;2023-03-29T09:09:40;3.95;;;1.75;;
75054;SDS011;63636;44.746;10.488;2023-03-29T09:14:53;4.65;;;1.90;;
75054;SDS011;63636;44.746;10.488;2023-03-29T09:17:37;3.42;;;1.75;;
75054;SDS011;63636;44.746;10.488;2023-03-29T09:23:02;3.55;;;1.90;;
75054;SDS011;63636;44.746;10.488;2023-03-29T09:25:50;6.20;;;2.00;;
75054;SDS011;63636;44.746;10.488;2023-03-29T09:28:39;4.10;;;2.10;;
75054;SDS011;63636;44.746;10.488;2023-03-29T09:31:12;5.55;;;2.20;;
75054;SDS011;63636;44.746;10.488;2023-03-29T09:33:48;3.88;;;2.05;;
75054;SDS011;63636;44.746;10.488;2023-03-29T09:38:48;4.25;;;2.10;;
75054;SDS011;63636;44.746;10.488;2023-03-29T09:41:20;4.10;;;1.88;;
75054;SDS011;63636;44.746;10.488;2023-03-29T09:43:48;5.88;;;2.03;;
75054;SDS011;63636;44.746;10.488;2023-03-29T09:46:24;5.65;;;1.95;;
75054;SDS011;63636;44.746;10.488;2023-03-29T09:48:51;3.35;;;2.08;;
75054;SDS011;63636;44.746;10.488;2023-03-29T09:51:18;5.60;;;2.10;;
75054;SDS011;63636;44.746;10.488;2023-03-29T09:53:45;6.45;;;2.38;;
75054;SDS011;63636;44.746;10.488;2023-03-29T09:56:23;5.93;;;2.10;;
75054;SDS011;63636;44.746;10.488;2023-03-29T09:59:01;6.55;;;2.30;;
75054;SDS011;63636;44.746;10.488;2023-03-29T10:01:33;5.43;;;2.22;;
75054;SDS011;63636;44.746;10.488;2023-03-29T10:04:04;5.18;;;2.25;;
75054;SDS011;63636;44.746;10.488;2023-03-29T10:06:31;8.35;;;2.80;;
75054;SDS011;63636;44.746;10.488;2023-03-29T10:08:59;4.07;;;2.40;;
75054;SDS011;63636;44.746;10.488;2023-03-29T10:11:35;5.88;;;2.50;;
75054;SDS011;63636;44.746;10.488;2023-03-29T10:14:03;5.13;;;2.25;;
75054;SDS011;63636;44.746;10.488;2023-03-29T10:16:33;8.20;;;2.60;;
75054;SDS011;63636;44.746;10.488;2023-03-29T10:19:06;6.78;;;2.45;;
75054;SDS011;63636;44.746;10.488;2023-03-29T10:21:39;4.60;;;2.17;;
75054;SDS011;63636;44.746;10.488;2023-03-29T10:24:07;6.25;;;2.30;;
75054;SDS011;63636;44.746;10.488;2023-03-29T10:26:33;6.15;;;2.10;;
75054;SDS011;63636;44.746;10.488;2023-03-29T10:29:01;4.78;;;2.28;;
75054;SDS011;63636;44.746;10.488;2023-03-29T10:31:30;5.30;;;2.25;;
75054;SDS011;63636;44.746;10.488;2023-03-29T10:33:57;7.00;;;2.42;;
75054;SDS011;63636;44.746;10.488;2023-03-29T10:36:27;5.10;;;2.70;;
75054;SDS011;63636;44.746;10.488;2023-03-29T10:38:53;5.05;;;2.80;;
75054;SDS011;63636;44.746;10.488;2023-03-29T10:41:20;5.18;;;2.58;;
75054;SDS011;63636;44.746;10.488;2023-03-29T10:43:48;4.78;;;2.47;;
75054;SDS011;63636;44.746;10.488;2023-03-29T10:46:19;6.45;;;2.80;;
75054;SDS011;63636;44.746;10.488;2023-03-29T10:49:02;5.55;;;2.63;;
75054;SDS011;63636;44.746;10.488;2023-03-29T10:51:34;6.60;;;2.85;;
75054;SDS011;63636;44.746;10.488;2023-03-29T10:54:01;5.28;;;2.75;;
75054;SDS011;63636;44.746;10.488;2023-03-29T10:56:44;6.22;;;2.50;;
75054;SDS011;63636;44.746;10.488;2023-03-29T11:12:27;5.18;;;2.58;;
75054;SDS011;63636;44.746;10.488;2023-03-29T11:17:31;6.55;;;2.60;;
75054;SDS011;63636;44.746;10.488;2023-03-29T11:20:18;6.03;;;2.50;;
75054;SDS011;63636;44.746;10.488;2023-03-29T11:27:56;7.22;;;2.70;;
75054;SDS011;63636;44.746;10.488;2023-03-29T11:33:04;7.45;;;3.05;;
75054;SDS011;63636;44.746;10.488;2023-03-29T11:35:38;6.32;;;2.80;;
75054;SDS011;63636;44.746;10.488;2023-03-29T11:43:15;7.25;;;3.13;;
75054;SDS011;63636;44.746;10.488;2023-03-29T11:45:53;6.70;;;3.00;;
75054;SDS011;63636;44.746;10.488;2023-03-29T11:48:23;6.50;;;3.13;;
75054;SDS011;63636;44.746;10.488;2023-03-29T11:53:21;6.35;;;3.22;;
75054;SDS011;63636;44.746;10.488;2023-03-29T11:55:48;8.27;;;3.30;;
75054;SDS011;63636;44.746;10.488;2023-03-29T11:58:17;5.38;;;2.75;;
75054;SDS011;63636;44.746;10.488;2023-03-29T12:00:47;6.43;;;2.55;;
75054;SDS011;63636;44.746;10.488;2023-03-29T12:05:45;5.97;;;2.75;;
75054;SDS011;63636;44.746;10.488;2023-03-29T12:10:40;6.45;;;2.70;;
75054;SDS011;63636;44.746;10.488;2023-03-29T12:15:37;6.25;;;2.95;;
75054;SDS011;63636;44.746;10.488;2023-03-29T12:20:40;7.82;;;3.30;;
75054;SDS011;63636;44.746;10.488;2023-03-29T12:23:11;6.72;;;3.22;;
75054;SDS011;63636;44.746;10.488;2023-03-29T12:28:26;6.28;;;3.00;;
75054;SDS011;63636;44.746;10.488;2023-03-29T12:30:58;7.25;;;2.90;;
75054;SDS011;63636;44.746;10.488;2023-03-29T12:39:36;5.72;;;3.15;;
75054;SDS011;63636;44.746;10.488;2023-03-29T12:42:28;7.20;;;3.47;;
75054;SDS011;63636;44.746;10.488;2023-03-29T12:45:13;6.15;;;2.90;;
75054;SDS011;63636;44.746;10.488;2023-03-29T12:47:42;8.80;;;3.90;;
75054;SDS011;63636;44.746;10.488;2023-03-29T12:50:19;7.47;;;3.60;;
75054;SDS011;63636;44.746;10.488;2023-03-29T12:52:46;7.40;;;3.22;;
75054;SDS011;63636;44.746;10.488;2023-03-29T12:55:28;5.15;;;3.10;;
75054;SDS011;63636;44.746;10.488;2023-03-29T13:00:29;7.50;;;3.33;;
75054;SDS011;63636;44.746;10.488;2023-03-29T13:02:58;8.88;;;3.65;;
75054;SDS011;63636;44.746;10.488;2023-03-29T13:05:28;7.25;;;3.67;;
75054;SDS011;63636;44.746;10.488;2023-03-29T13:07:54;7.78;;;3.40;;
75054;SDS011;63636;44.746;10.488;2023-03-29T13:10:36;8.93;;;3.50;;
75054;SDS011;63636;44.746;10.488;2023-03-29T13:13:07;5.78;;;3.20;;
75054;SDS011;63636;44.746;10.488;2023-03-29T13:15:35;5.90;;;3.47;;
75054;SDS011;63636;44.746;10.488;2023-03-29T13:23:05;6.72;;;3.50;;
75054;SDS011;63636;44.746;10.488;2023-03-29T13:38:22;6.53;;;3.80;;
75054;SDS011;63636;44.746;10.488;2023-03-29T13:48:27;6.97;;;4.00;;
75054;SDS011;63636;44.746;10.488;2023-03-29T13:50:56;7.63;;;4.40;;
75054;SDS011;63636;44.746;10.488;2023-03-29T13:53:26;8.32;;;4.28;;
75054;SDS011;63636;44.746;10.488;2023-03-29T13:55:53;7.32;;;4.20;;
75054;SDS011;63636;44.746;10.488;2023-03-29T13:58:25;7.75;;;4.00;;
75054;SDS011;63636;44.746;10.488;2023-03-29T14:00:54;7.32;;;3.92;;
75054;SDS011;63636;44.746;10.488;2023-03-29T14:03:21;7.68;;;4.05;;
75054;SDS011;63636;44.746;10.488;2023-03-29T14:05:56;8.60;;;4.03;;
75054;SDS011;63636;44.746;10.488;2023-03-29T14:08:28;6.65;;;3.58;;
75054;SDS011;63636;44.746;10.488;2023-03-29T14:10:54;9.03;;;4.50;;
75054;SDS011;63636;44.746;10.488;2023-03-29T14:13:22;7.28;;;3.72;;
75054;SDS011;63636;44.746;10.488;2023-03-29T14:15:50;9.05;;;4.38;;
75054;SDS011;63636;44.746;10.488;2023-03-29T14:18:17;8.55;;;4.25;;
75054;SDS011;63636;44.746;10.488;2023-03-29T14:20:47;5.97;;;4.03;;
75054;SDS011;63636;44.746;10.488;2023-03-29T14:23:18;8.95;;;4.10;;
75054;SDS011;63636;44.746;10.488;2023-03-29T14:25:45;7.22;;;3.90;;
75054;SDS011;63636;44.746;10.488;2023-03-29T14:28:32;7.40;;;4.30;;
75054;SDS011;63636;44.746;10.488;2023-03-29T14:30:57;9.40;;;4.07;;
75054;SDS011;63636;44.746;10.488;2023-03-29T14:33:23;8.30;;;4.30;;
75054;SDS011;63636;44.746;10.488;2023-03-29T14:35:52;8.48;;;4.40;;
75054;SDS011;63636;44.746;10.488;2023-03-29T14:38:18;8.00;;;4.10;;
75054;SDS011;63636;44.746;10.488;2023-03-29T14:40:44;8.32;;;4.00;;
75054;SDS011;63636;44.746;10.488;2023-03-29T14:43:10;6.68;;;3.78;;
75054;SDS011;63636;44.746;10.488;2023-03-29T14:45:38;7.82;;;4.75;;
75054;SDS011;63636;44.746;10.488;2023-03-29T14:48:04;6.93;;;3.42;;
75054;SDS011;63636;44.746;10.488;2023-03-29T14:50:31;7.68;;;4.20;;
75054;SDS011;63636;44.746;10.488;2023-03-29T14:52:57;7.35;;;4.10;;
75054;SDS011;63636;44.746;10.488;2023-03-29T14:55:23;7.20;;;4.30;;
75054;SDS011;63636;44.746;10.488;2023-03-29T14:57:49;8.52;;;4.68;;
75054;SDS011;63636;44.746;10.488;2023-03-29T15:00:17;7.22;;;4.25;;
75054;SDS011;63636;44.746;10.488;2023-03-29T15:02:52;7.47;;;4.28;;
75054;SDS011;63636;44.746;10.488;2023-03-29T15:05:32;8.35;;;4.60;;
75054;SDS011;63636;44.746;10.488;2023-03-29T15:07:59;7.30;;;4.22;;
75054;SDS011;63636;44.746;10.488;2023-03-29T15:10:24;7.07;;;4.15;;
75054;SDS011;63636;44.746;10.488;2023-03-29T15:12:50;10.30;;;5.05;;
75054;SDS011;63636;44.746;10.488;2023-03-29T15:15:16;8.98;;;4.70;;
75054;SDS011;63636;44.746;10.488;2023-03-29T15:17:42;12.25;;;4.75;;
75054;SDS011;63636;44.746;10.488;2023-03-29T15:20:21;9.63;;;4.63;;
75054;SDS011;63636;44.746;10.488;2023-03-29T15:25:25;9.45;;;4.32;;
75054;SDS011;63636;44.746;10.488;2023-03-29T15:27:53;8.68;;;4.40;;
75054;SDS011;63636;44.746;10.488;2023-03-29T15:30:19;11.40;;;5.05;;
75054;SDS011;63636;44.746;10.488;2023-03-29T15:32:44;10.93;;;5.07;;
75054;SDS011;63636;44.746;10.488;2023-03-29T15:35:20;8.85;;;4.43;;
75054;SDS011;63636;44.746;10.488;2023-03-29T15:37:46;10.80;;;4.93;;
75054;SDS011;63636;44.746;10.488;2023-03-29T15:40:15;11.52;;;4.70;;
75054;SDS011;63636;44.746;10.488;2023-03-29T15:42:41;7.68;;;4.95;;
75054;SDS011;63636;44.746;10.488;2023-03-29T15:45:11;8.57;;;5.20;;
75054;SDS011;63636;44.746;10.488;2023-03-29T15:47:38;10.65;;;4.97;;
75054;SDS011;63636;44.746;10.488;2023-03-29T15:50:04;9.13;;;5.30;;
75054;SDS011;63636;44.746;10.488;2023-03-29T15:52:29;9.38;;;5.53;;
75054;SDS011;63636;44.746;10.488;2023-03-29T15:54:55;10.02;;;5.63;;
75054;SDS011;63636;44.746;10.488;2023-03-29T15:57:21;10.02;;;5.55;;
75054;SDS011;63636;44.746;10.488;2023-03-29T15:59:46;9.90;;;5.60;;
75054;SDS011;63636;44.746;10.488;2023-03-29T16:02:12;8.80;;;5.10;;
75054;SDS011;63636;44.746;10.488;2023-03-29T16:04:39;9.98;;;5.72;;
75054;SDS011;63636;44.746;10.488;2023-03-29T16:07:06;10.65;;;5.65;;
75054;SDS011;63636;44.746;10.488;2023-03-29T16:09:34;9.68;;;5.38;;
75054;SDS011;63636;44.746;10.488;2023-03-29T16:12:01;8.80;;;4.97;;
75054;SDS011;63636;44.746;10.488;2023-03-29T16:14:27;9.73;;;5.70;;
75054;SDS011;63636;44.746;10.488;2023-03-29T16:16:54;10.88;;;5.07;;
75054;SDS011;63636;44.746;10.488;2023-03-29T16:19:20;9.60;;;5.40;;
75054;SDS011;63636;44.746;10.488;2023-03-29T16:21:46;11.38;;;5.65;;
75054;SDS011;63636;44.746;10.488;2023-03-29T16:24:13;10.20;;;5.80;;
75054;SDS011;63636;44.746;10.488;2023-03-29T16:26:39;11.77;;;5.90;;
75054;SDS011;63636;44.746;10.488;2023-03-29T16:29:05;11.25;;;5.68;;
75054;SDS011;63636;44.746;10.488;2023-03-29T16:31:30;9.23;;;5.55;;
75054;SDS011;63636;44.746;10.488;2023-03-29T16:33:56;10.15;;;6.05;;
75054;SDS011;63636;44.746;10.488;2023-03-29T16:36:22;10.48;;;6.03;;
75054;SDS011;63636;44.746;10.488;2023-03-29T16:38:47;10.07;;;5.93;;